Norman, Arkansas
Current Conditions -  °F | °C
As of 10:17 AM on Friday 19 Dec 2014 (Local Time) from KMWT Reporting Station
Light Rain Light Rain  
Wind Chill: 41°   Ceiling: 500
Heat Index: 41°   Visibility: 3mi
Dew Point: 39°   Wind: 0mph
Humidity: 93%   Direction: NA
Pressure: 30.24"   Gusts: NA
Location:  34.46°N, 93.68°W
Report Text: KMWT 191617Z AUTO 00000KT 3SM -RA BR OVC005 05/04 A3024 RMK AO2 CIG 003V007 P0002 T00500039
Loading
Personal Weather Stations






























Interactive Weather Map New forecast layout! Learn more

10-Day Weather Forecast

Advertisements
Track Severe Weather on mobile